Time;durP1;ratioP1;P1;durP2;ratioP2;P2;SDS_P1;SDS_P2;PMS_P1;PMS_P2;Temp;Humidity;BMP_temperature;BMP_pressure;BME280_temperature;BME280_humidity;BME280_pressure;Samples;Min_cycle;Max_cycle;Signal;HPM_P1;HPM_P2
2023/02/28 00:01:45;0.00;0.00;0.62;0.00;0.00;0.62;1.83;1.40;;;21.50;21.10;;;;;;2264408;61;20429;-61
2023/02/28 00:04:30;0.00;0.00;0.62;0.00;0.00;0.62;2.00;1.60;;;21.50;21.10;;;;;;2261139;61;21144;-59
2023/02/28 00:07:15;0.00;0.00;0.62;0.00;0.00;0.62;1.80;1.17;;;21.50;21.10;;;;;;2263882;61;20379;-61
2023/02/28 00:09:59;0.00;0.00;0.62;0.00;0.00;0.62;2.00;1.47;;;21.50;21.10;;;;;;2264054;61;20444;-59
2023/02/28 00:12:44;0.00;0.00;0.62;0.00;0.00;0.62;2.37;1.63;;;21.50;21.10;;;;;;2263793;61;20400;-59
2023/02/28 00:15:31;0.00;0.00;0.62;0.00;0.00;0.62;1.87;1.20;;;21.50;21.10;;;;;;2264213;61;20754;-61
2023/02/28 00:18:15;0.00;0.00;0.62;0.00;0.00;0.62;1.70;1.30;;;21.50;21.10;;;;;;2264468;61;20822;-62
2023/02/28 00:21:00;0.00;0.00;0.62;0.00;0.00;0.62;2.20;1.97;;;21.50;21.20;;;;;;2263240;61;20953;-61
2023/02/28 00:23:45;0.00;0.00;0.62;0.00;0.00;0.62;2.07;1.30;;;21.50;21.10;;;;;;2264181;61;20402;-68
2023/02/28 00:26:30;0.00;0.00;0.62;0.00;0.00;0.62;2.43;1.60;;;21.50;21.10;;;;;;2264275;61;20365;-62
2023/02/28 00:29:14;0.00;0.00;0.62;0.00;0.00;0.62;2.57;1.53;;;21.50;21.10;;;;;;2263565;61;20372;-60
2023/02/28 00:32:01;0.00;0.00;0.62;0.00;0.00;0.62;2.00;1.40;;;21.50;21.10;;;;;;2264354;61;20861;-62
2023/02/28 00:34:46;0.00;0.00;0.62;0.00;0.00;0.62;1.73;1.30;;;21.50;21.10;;;;;;2260405;61;20868;-59
2023/02/28 00:37:31;0.00;0.00;0.62;0.00;0.00;0.62;2.53;1.50;;;21.40;21.10;;;;;;2261030;61;20364;-61
2023/02/28 00:40:16;0.00;0.00;0.62;0.00;0.00;0.62;2.70;1.40;;;21.40;21.10;;;;;;2260626;61;20920;-61
2023/02/28 00:43:01;0.00;0.00;0.62;0.00;0.00;0.62;1.60;1.10;;;21.40;21.10;;;;;;2260084;61;20380;-60
2023/02/28 00:45:46;0.00;0.00;0.62;0.00;0.00;0.62;2.40;1.47;;;21.50;21.10;;;;;;2258443;61;20383;-58
2023/02/28 00:48:35;0.00;0.00;0.62;0.00;0.00;0.62;2.17;1.20;;;21.40;21.10;;;;;;2264014;61;20458;-61
2023/02/28 00:51:20;0.00;0.00;0.62;0.00;0.00;0.62;2.00;1.20;;;21.40;21.10;;;;;;2260414;61;20430;-60
2023/02/28 00:54:05;0.00;0.00;0.62;0.00;0.00;0.62;2.17;1.47;;;21.40;21.10;;;;;;2264069;61;20415;-60
2023/02/28 00:56:50;0.00;0.00;0.62;0.00;0.00;0.62;2.17;1.30;;;21.40;21.10;;;;;;2260342;61;20946;-62
2023/02/28 00:59:35;0.00;0.00;0.62;0.00;0.00;0.62;2.13;1.27;;;21.40;21.10;;;;;;2264120;61;20821;-62
2023/02/28 01:02:23;0.00;0.00;0.62;0.00;0.00;0.62;2.37;1.43;;;21.40;21.10;;;;;;2264272;61;20903;-62
2023/02/28 01:05:09;0.00;0.00;0.62;0.00;0.00;0.62;1.90;1.50;;;21.40;21.10;;;;;;2260219;61;20360;-61
2023/02/28 01:07:54;0.00;0.00;0.62;0.00;0.00;0.62;2.00;1.20;;;21.40;21.10;;;;;;2261209;61;20396;-60
2023/02/28 01:10:39;0.00;0.00;0.62;0.00;0.00;0.62;1.60;1.13;;;21.40;21.10;;;;;;2263913;61;20364;-61
2023/02/28 01:13:25;0.00;0.00;0.62;0.00;0.00;0.62;1.90;1.20;;;21.40;21.10;;;;;;2260243;61;20388;-60
2023/02/28 01:16:10;0.00;0.00;0.62;0.00;0.00;0.62;2.30;1.30;;;21.30;21.00;;;;;;2261049;61;20419;-62
2023/02/28 01:18:55;0.00;0.00;0.62;0.00;0.00;0.62;1.93;1.40;;;21.30;21.00;;;;;;2260359;61;20367;-62
2023/02/28 01:21:41;0.00;0.00;0.62;0.00;0.00;0.62;2.60;1.83;;;21.30;21.00;;;;;;2264184;61;20894;-64
2023/02/28 01:24:26;0.00;0.00;0.62;0.00;0.00;0.62;1.87;1.03;;;21.30;21.10;;;;;;2264245;61;20380;-59
2023/02/28 01:27:11;0.00;0.00;0.62;0.00;0.00;0.62;2.23;1.30;;;21.30;21.00;;;;;;2263349;61;20434;-62
2023/02/28 01:29:55;0.00;0.00;0.62;0.00;0.00;0.62;2.40;1.33;;;21.30;21.10;;;;;;2261599;61;20888;-61
2023/02/28 01:32:40;0.00;0.00;0.62;0.00;0.00;0.62;2.50;1.30;;;21.30;21.00;;;;;;2264655;61;20439;-64
2023/02/28 01:35:25;0.00;0.00;0.62;0.00;0.00;0.62;2.03;1.50;;;21.30;21.10;;;;;;2260991;61;20860;-61
2023/02/28 01:38:11;0.00;0.00;0.62;0.00;0.00;0.62;1.90;1.23;;;21.30;21.00;;;;;;2264934;61;20889;-57
2023/02/28 01:40:56;0.00;0.00;0.62;0.00;0.00;0.62;1.90;1.20;;;21.30;21.10;;;;;;2264400;61;20368;-60
2023/02/28 01:43:59;0.00;0.00;0.62;0.00;0.00;0.62;1.83;1.20;;;21.30;21.00;;;;;;2261489;61;20468;-62
2023/02/28 01:46:44;0.00;0.00;0.62;0.00;0.00;0.62;1.70;1.20;;;21.30;21.10;;;;;;2264635;61;20382;-61
2023/02/28 01:49:29;0.00;0.00;0.62;0.00;0.00;0.62;2.10;1.23;;;21.30;21.10;;;;;;2263845;61;20396;-59
2023/02/28 01:52:17;0.00;0.00;0.62;0.00;0.00;0.62;1.93;1.30;;;21.30;21.10;;;;;;2261527;61;20402;-59
2023/02/28 01:55:07;0.00;0.00;0.62;0.00;0.00;0.62;1.90;1.47;;;21.30;21.10;;;;;;2264729;61;20364;-63
2023/02/28 01:57:59;0.00;0.00;0.62;0.00;0.00;0.62;2.13;1.50;;;21.20;21.00;;;;;;2261014;61;20383;-60
2023/02/28 02:00:44;0.00;0.00;0.62;0.00;0.00;0.62;2.27;1.30;;;21.30;21.10;;;;;;2261123;61;20403;-62
2023/02/28 02:03:30;0.00;0.00;0.62;0.00;0.00;0.62;2.33;1.33;;;21.30;21.10;;;;;;2264101;61;20387;-57
2023/02/28 02:06:15;0.00;0.00;0.62;0.00;0.00;0.62;1.93;1.50;;;21.20;21.00;;;;;;2264612;61;20403;-60
2023/02/28 02:09:00;0.00;0.00;0.62;0.00;0.00;0.62;2.07;1.40;;;21.20;21.10;;;;;;2264462;61;20899;-63
2023/02/28 02:11:46;0.00;0.00;0.62;0.00;0.00;0.62;2.10;1.10;;;21.20;21.00;;;;;;2264009;61;20395;-62
2023/02/28 02:14:51;0.00;0.00;0.62;0.00;0.00;0.62;3.30;1.50;;;21.20;21.00;;;;;;2264651;61;20788;-56
2023/02/28 02:17:40;0.00;0.00;0.62;0.00;0.00;0.62;2.20;1.50;;;21.20;21.10;;;;;;2261616;61;20375;-60
2023/02/28 02:21:19;0.00;0.00;0.62;0.00;0.00;0.62;2.40;1.53;;;21.20;21.10;;;;;;2264006;61;20983;-60
2023/02/28 02:24:35;0.00;0.00;0.62;0.00;0.00;0.62;1.67;1.30;;;21.20;21.10;;;;;;2264564;61;20387;-58
2023/02/28 02:27:47;0.00;0.00;0.62;0.00;0.00;0.62;2.30;1.50;;;21.20;21.10;;;;;;2264118;61;20467;-57
2023/02/28 02:31:10;0.00;0.00;0.62;0.00;0.00;0.62;2.47;1.23;;;21.20;21.10;;;;;;2264496;61;20371;-61
2023/02/28 02:34:39;0.00;0.00;0.62;0.00;0.00;0.62;1.90;1.43;;;21.20;21.10;;;;;;2263578;61;20400;-59
2023/02/28 02:37:36;0.00;0.00;0.62;0.00;0.00;0.62;2.50;1.43;;;21.20;21.10;;;;;;2261526;61;20372;-58
2023/02/28 02:40:27;0.00;0.00;0.62;0.00;0.00;0.62;2.10;1.50;;;21.10;21.00;;;;;;2263873;61;20360;-58
2023/02/28 02:43:19;0.00;0.00;0.62;0.00;0.00;0.62;2.07;1.50;;;21.10;21.00;;;;;;2264495;61;20880;-62
2023/02/28 02:46:10;0.00;0.00;0.62;0.00;0.00;0.62;2.33;1.57;;;21.10;21.10;;;;;;2261803;61;20964;-59
2023/02/28 02:48:57;0.00;0.00;0.62;0.00;0.00;0.62;1.60;1.10;;;21.10;21.00;;;;;;2263586;61;20893;-58
2023/02/28 02:51:46;0.00;0.00;0.62;0.00;0.00;0.62;1.70;1.30;;;21.10;21.00;;;;;;2264581;61;20407;-58
2023/02/28 02:54:36;0.00;0.00;0.62;0.00;0.00;0.62;1.97;1.33;;;21.10;21.00;;;;;;2260884;61;20399;-61
2023/02/28 02:57:27;0.00;0.00;0.62;0.00;0.00;0.62;2.30;1.60;;;21.10;21.00;;;;;;2264269;61;20443;-61
2023/02/28 03:00:14;0.00;0.00;0.62;0.00;0.00;0.62;2.30;1.83;;;21.10;21.00;;;;;;2260732;61;20926;-61
2023/02/28 03:03:01;0.00;0.00;0.62;0.00;0.00;0.62;2.73;1.63;;;21.10;21.00;;;;;;2263771;61;20783;-61
2023/02/28 03:05:48;0.00;0.00;0.62;0.00;0.00;0.62;3.17;1.97;;;21.10;21.00;;;;;;2264717;61;20889;-61
2023/02/28 03:08:38;0.00;0.00;0.62;0.00;0.00;0.62;2.80;1.70;;;21.10;21.10;;;;;;2264686;61;20444;-58
2023/02/28 03:11:23;0.00;0.00;0.62;0.00;0.00;0.62;1.67;1.30;;;21.10;21.10;;;;;;2260730;61;20494;-61
2023/02/28 03:14:27;0.00;0.00;0.62;0.00;0.00;0.62;2.87;1.60;;;21.10;21.00;;;;;;2261139;61;20483;-59
2023/02/28 03:17:30;0.00;0.00;0.62;0.00;0.00;0.62;2.50;1.60;;;21.10;21.10;;;;;;2264197;61;20356;-64
2023/02/28 03:20:32;0.00;0.00;0.62;0.00;0.00;0.62;2.20;1.50;;;21.00;21.00;;;;;;2264266;61;20363;-57
2023/02/28 03:23:21;0.00;0.00;0.62;0.00;0.00;0.62;2.37;1.43;;;21.00;21.00;;;;;;2264347;61;20379;-60
2023/02/28 03:26:17;0.00;0.00;0.62;0.00;0.00;0.62;2.10;1.40;;;21.00;21.00;;;;;;2264048;61;20410;-59
2023/02/28 03:29:06;0.00;0.00;0.62;0.00;0.00;0.62;2.73;2.20;;;21.00;21.00;;;;;;2263956;61;20491;-62
2023/02/28 03:31:58;0.00;0.00;0.62;0.00;0.00;0.62;2.20;1.27;;;21.00;21.00;;;;;;2264295;61;20443;-59
2023/02/28 03:34:49;0.00;0.00;0.62;0.00;0.00;0.62;2.13;1.60;;;21.00;21.00;;;;;;2264326;61;20965;-57
2023/02/28 03:37:36;0.00;0.00;0.62;0.00;0.00;0.62;2.23;1.73;;;21.00;21.00;;;;;;2264540;61;20414;-59
2023/02/28 03:40:25;0.00;0.00;0.62;0.00;0.00;0.62;2.60;2.20;;;21.00;21.00;;;;;;2263356;61;20422;-60
2023/02/28 03:43:19;0.00;0.00;0.62;0.00;0.00;0.62;2.60;1.77;;;21.00;21.00;;;;;;2264362;61;20404;-57
2023/02/28 03:46:10;0.00;0.00;0.62;0.00;0.00;0.62;2.30;1.40;;;21.00;21.00;;;;;;2264735;61;20408;-60
2023/02/28 03:49:01;0.00;0.00;0.62;0.00;0.00;0.62;2.63;1.70;;;21.00;21.00;;;;;;2263817;61;20426;-58
2023/02/28 03:51:49;0.00;0.00;0.62;0.00;0.00;0.62;2.30;1.53;;;21.00;21.00;;;;;;2264427;61;20359;-58
2023/02/28 03:54:41;0.00;0.00;0.62;0.00;0.00;0.62;2.93;1.80;;;21.00;21.00;;;;;;2263389;61;20400;-59
2023/02/28 03:57:33;0.00;0.00;0.62;0.00;0.00;0.62;2.93;1.90;;;21.00;21.00;;;;;;2261322;61;20375;-61
2023/02/28 04:00:28;0.00;0.00;0.62;0.00;0.00;0.62;2.50;2.00;;;21.00;21.00;;;;;;2264107;61;20388;-61
2023/02/28 04:03:13;0.00;0.00;0.62;0.00;0.00;0.62;2.20;1.53;;;21.00;21.00;;;;;;2260408;61;20375;-58
2023/02/28 04:05:58;0.00;0.00;0.62;0.00;0.00;0.62;2.90;2.00;;;20.90;20.90;;;;;;2264323;61;20445;-60
2023/02/28 04:08:44;0.00;0.00;0.62;0.00;0.00;0.62;2.90;2.30;;;20.90;21.00;;;;;;2264356;61;20889;-62
2023/02/28 04:11:34;0.00;0.00;0.62;0.00;0.00;0.62;2.90;1.80;;;20.90;20.90;;;;;;2261063;61;20414;-61
2023/02/28 04:14:19;0.00;0.00;0.62;0.00;0.00;0.62;3.00;2.20;;;20.90;21.00;;;;;;2264521;61;20394;-60
2023/02/28 04:17:05;0.00;0.00;0.62;0.00;0.00;0.62;2.47;1.60;;;20.90;21.00;;;;;;2263666;61;20384;-58
2023/02/28 04:19:50;0.00;0.00;0.62;0.00;0.00;0.62;2.70;1.80;;;20.90;21.00;;;;;;2263958;61;20561;-59
2023/02/28 04:22:35;0.00;0.00;0.62;0.00;0.00;0.62;2.57;1.77;;;20.90;21.00;;;;;;2264439;61;20392;-59
2023/02/28 04:25:20;0.00;0.00;0.62;0.00;0.00;0.62;2.37;1.67;;;20.90;21.00;;;;;;2263488;61;20359;-58
2023/02/28 04:28:05;0.00;0.00;0.62;0.00;0.00;0.62;3.00;2.00;;;20.90;21.00;;;;;;2264335;61;20368;-60
2023/02/28 04:30:55;0.00;0.00;0.62;0.00;0.00;0.62;2.37;1.80;;;20.90;21.00;;;;;;2264029;61;20363;-60
2023/02/28 04:33:42;0.00;0.00;0.62;0.00;0.00;0.62;2.03;1.57;;;20.90;21.00;;;;;;2263871;61;20494;-63
2023/02/28 04:36:27;0.00;0.00;0.62;0.00;0.00;0.62;2.23;1.80;;;20.80;20.90;;;;;;2263486;61;20386;-62
2023/02/28 04:39:12;0.00;0.00;0.62;0.00;0.00;0.62;2.20;1.83;;;20.80;20.90;;;;;;2263452;61;20364;-61
2023/02/28 04:41:57;0.00;0.00;0.62;0.00;0.00;0.62;2.77;1.63;;;20.80;20.90;;;;;;2264179;61;20869;-61
2023/02/28 04:44:42;0.00;0.00;0.62;0.00;0.00;0.62;2.70;1.83;;;20.80;20.90;;;;;;2264334;61;20360;-61
2023/02/28 04:47:26;0.00;0.00;0.62;0.00;0.00;0.62;2.30;1.80;;;20.80;20.90;;;;;;2262402;61;20464;-61
2023/02/28 04:50:12;0.00;0.00;0.62;0.00;0.00;0.62;3.13;2.10;;;20.80;20.90;;;;;;2264091;61;20410;-61
2023/02/28 04:52:57;0.00;0.00;0.62;0.00;0.00;0.62;3.07;1.80;;;20.80;20.90;;;;;;2264307;61;20908;-58
2023/02/28 04:55:41;0.00;0.00;0.62;0.00;0.00;0.62;2.80;2.07;;;20.80;20.90;;;;;;2260582;61;20457;-62
2023/02/28 04:58:27;0.00;0.00;0.62;0.00;0.00;0.62;3.20;2.20;;;20.80;20.90;;;;;;2260046;61;20506;-62
2023/02/28 05:01:24;0.00;0.00;0.62;0.00;0.00;0.62;2.10;1.43;;;20.80;20.90;;;;;;2263240;61;20638;-62
2023/02/28 05:04:09;0.00;0.00;0.62;0.00;0.00;0.62;2.50;1.60;;;20.80;20.90;;;;;;2264297;61;20384;-62
2023/02/28 05:06:55;0.00;0.00;0.62;0.00;0.00;0.62;2.07;1.63;;;20.80;20.90;;;;;;2264216;61;20356;-61
2023/02/28 05:09:40;0.00;0.00;0.62;0.00;0.00;0.62;2.40;1.50;;;20.80;20.90;;;;;;2259882;61;20884;-59
2023/02/28 05:12:25;0.00;0.00;0.62;0.00;0.00;0.62;2.40;2.00;;;20.80;20.90;;;;;;2264411;61;20387;-63
2023/02/28 05:15:13;0.00;0.00;0.62;0.00;0.00;0.62;2.67;1.90;;;20.70;20.90;;;;;;2260879;61;20387;-61
2023/02/28 05:17:58;0.00;0.00;0.62;0.00;0.00;0.62;2.40;1.70;;;20.70;20.90;;;;;;2263919;61;20291;-58
2023/02/28 05:20:44;0.00;0.00;0.62;0.00;0.00;0.62;2.43;1.67;;;20.80;21.00;;;;;;2263939;61;20360;-61
2023/02/28 05:23:30;0.00;0.00;0.62;0.00;0.00;0.62;2.63;1.67;;;20.70;20.90;;;;;;2263148;61;20399;-61
2023/02/28 05:26:14;0.00;0.00;0.62;0.00;0.00;0.62;2.10;1.60;;;20.80;20.90;;;;;;2261014;61;20425;-61
2023/02/28 05:28:59;0.00;0.00;0.62;0.00;0.00;0.62;3.53;2.63;;;20.70;20.90;;;;;;2264161;61;20364;-59
2023/02/28 05:31:43;0.00;0.00;0.62;0.00;0.00;0.62;2.10;1.63;;;20.80;20.90;;;;;;2263250;61;20364;-61
2023/02/28 05:34:28;0.00;0.00;0.62;0.00;0.00;0.62;2.50;1.77;;;20.70;20.90;;;;;;2264014;61;20421;-61
2023/02/28 05:37:14;0.00;0.00;0.62;0.00;0.00;0.62;2.80;1.73;;;20.70;20.90;;;;;;2263989;61;20411;-61
2023/02/28 05:40:01;0.00;0.00;0.62;0.00;0.00;0.62;2.07;1.53;;;20.70;20.90;;;;;;2263471;61;20395;-60
2023/02/28 05:42:46;0.00;0.00;0.62;0.00;0.00;0.62;2.67;1.60;;;20.70;21.10;;;;;;2263997;61;20928;-59
2023/02/28 05:45:31;0.00;0.00;0.62;0.00;0.00;0.62;2.53;1.83;;;20.70;20.90;;;;;;2263433;61;20784;-57
2023/02/28 05:48:16;0.00;0.00;0.62;0.00;0.00;0.62;3.47;1.83;;;20.70;20.90;;;;;;2264114;61;20885;-61
2023/02/28 05:51:02;0.00;0.00;0.62;0.00;0.00;0.62;2.10;1.60;;;20.70;20.90;;;;;;2263652;61;20441;-58
2023/02/28 05:53:49;0.00;0.00;0.62;0.00;0.00;0.62;2.13;1.60;;;20.60;20.80;;;;;;2263170;61;20383;-63
2023/02/28 05:56:35;0.00;0.00;0.62;0.00;0.00;0.62;3.43;1.50;;;20.60;20.80;;;;;;2260981;61;20987;-59
2023/02/28 05:59:20;0.00;0.00;0.62;0.00;0.00;0.62;2.30;1.83;;;20.60;20.80;;;;;;2262882;61;20372;-59
2023/02/28 06:02:11;0.00;0.00;0.62;0.00;0.00;0.62;2.80;1.77;;;20.60;20.80;;;;;;2263549;61;20840;-62
2023/02/28 06:04:56;0.00;0.00;0.62;0.00;0.00;0.62;2.63;2.00;;;20.60;20.90;;;;;;2263850;61;20357;-60
2023/02/28 06:07:41;0.00;0.00;0.62;0.00;0.00;0.62;2.47;1.90;;;20.60;20.90;;;;;;2263255;61;20407;-60
2023/02/28 06:10:26;0.00;0.00;0.62;0.00;0.00;0.62;2.40;1.90;;;20.60;20.80;;;;;;2263751;61;20371;-61
2023/02/28 06:13:12;0.00;0.00;0.62;0.00;0.00;0.62;1.90;1.60;;;20.60;20.90;;;;;;2264171;61;20884;-59
2023/02/28 06:16:00;0.00;0.00;0.62;0.00;0.00;0.62;2.80;1.93;;;20.60;20.80;;;;;;2264035;61;20378;-61
2023/02/28 06:18:45;0.00;0.00;0.62;0.00;0.00;0.62;2.77;2.07;;;20.60;20.90;;;;;;2265062;61;20392;-60
2023/02/28 06:21:30;0.00;0.00;0.62;0.00;0.00;0.62;2.73;1.80;;;20.60;20.90;;;;;;2264660;61;20511;-60
2023/02/28 06:24:15;0.00;0.00;0.62;0.00;0.00;0.62;3.30;2.20;;;20.60;20.90;;;;;;2263936;61;20395;-56
2023/02/28 06:27:04;0.00;0.00;0.62;0.00;0.00;0.62;2.30;2.07;;;20.60;20.90;;;;;;2264593;61;20787;-56
2023/02/28 06:29:55;0.00;0.00;0.62;0.00;0.00;0.62;2.43;1.90;;;20.60;20.90;;;;;;2263802;61;20360;-61
2023/02/28 06:32:40;0.00;0.00;0.62;0.00;0.00;0.62;2.73;2.03;;;20.50;20.80;;;;;;2264395;61;20421;-57
2023/02/28 06:35:26;0.00;0.00;0.62;0.00;0.00;0.62;3.53;2.47;;;20.50;20.80;;;;;;2264748;61;20399;-56
2023/02/28 06:38:11;0.00;0.00;0.62;0.00;0.00;0.62;3.10;1.97;;;20.50;20.80;;;;;;2263896;61;20368;-57
2023/02/28 06:40:58;0.00;0.00;0.62;0.00;0.00;0.62;2.77;2.17;;;20.50;20.90;;;;;;2264042;61;20766;-56
2023/02/28 06:43:43;0.00;0.00;0.62;0.00;0.00;0.62;3.10;2.17;;;20.50;20.80;;;;;;2258621;61;20951;-58
2023/02/28 06:46:29;0.00;0.00;0.62;0.00;0.00;0.62;2.43;2.03;;;20.50;20.90;;;;;;2260758;61;20448;-59
2023/02/28 06:49:15;0.00;0.00;0.62;0.00;0.00;0.62;2.77;2.50;;;20.50;20.80;;;;;;2262900;61;20407;-58
2023/02/28 06:52:01;0.00;0.00;0.62;0.00;0.00;0.62;2.60;2.03;;;20.50;20.90;;;;;;2260756;61;20376;-61
2023/02/28 06:54:46;0.00;0.00;0.62;0.00;0.00;0.62;3.53;2.20;;;20.50;20.90;;;;;;2264567;61;20387;-57
2023/02/28 06:57:32;0.00;0.00;0.62;0.00;0.00;0.62;3.57;2.50;;;20.50;20.90;;;;;;2261450;61;20468;-59
2023/02/28 07:00:19;0.00;0.00;0.62;0.00;0.00;0.62;2.67;2.17;;;20.50;20.90;;;;;;2263415;61;20379;-59
2023/02/28 07:03:05;0.00;0.00;0.62;0.00;0.00;0.62;3.00;2.40;;;20.50;20.90;;;;;;2264426;61;20392;-59
2023/02/28 07:05:50;0.00;0.00;0.62;0.00;0.00;0.62;3.93;2.10;;;20.40;20.80;;;;;;2264358;61;20368;-59
2023/02/28 07:08:40;0.00;0.00;0.62;0.00;0.00;0.62;3.00;2.10;;;20.50;20.90;;;;;;2263799;61;20363;-61
2023/02/28 07:11:27;0.00;0.00;0.62;0.00;0.00;0.62;3.70;2.67;;;20.50;20.90;;;;;;2264000;61;20971;-60
2023/02/28 07:14:12;0.00;0.00;0.62;0.00;0.00;0.62;2.83;1.83;;;20.40;20.80;;;;;;2262225;61;20412;-59
2023/02/28 07:16:57;0.00;0.00;0.62;0.00;0.00;0.62;2.70;2.20;;;20.40;20.90;;;;;;2261244;61;20419;-59
2023/02/28 07:19:43;0.00;0.00;0.62;0.00;0.00;0.62;2.83;1.87;;;20.40;20.80;;;;;;2264386;61;20364;-59
2023/02/28 07:22:28;0.00;0.00;0.62;0.00;0.00;0.62;2.53;1.93;;;20.40;20.90;;;;;;2263640;61;20891;-61
2023/02/28 07:25:13;0.00;0.00;0.62;0.00;0.00;0.62;2.30;1.70;;;20.40;20.90;;;;;;2264369;61;20892;-62
2023/02/28 07:27:58;0.00;0.00;0.62;0.00;0.00;0.62;3.00;2.17;;;20.40;20.90;;;;;;2264635;61;20399;-59
2023/02/28 07:30:43;0.00;0.00;0.62;0.00;0.00;0.62;3.10;2.10;;;20.40;20.90;;;;;;2263521;61;20368;-60
2023/02/28 07:33:28;0.00;0.00;0.62;0.00;0.00;0.62;3.43;2.30;;;20.40;20.90;;;;;;2264586;61;20502;-67
2023/02/28 07:36:18;0.00;0.00;0.62;0.00;0.00;0.62;2.10;1.57;;;20.40;20.90;;;;;;2264223;61;20426;-59
2023/02/28 07:39:04;0.00;0.00;0.62;0.00;0.00;0.62;3.10;2.10;;;20.40;20.90;;;;;;2264203;61;20400;-60
2023/02/28 07:41:49;0.00;0.00;0.62;0.00;0.00;0.62;2.80;2.10;;;20.40;20.90;;;;;;2264672;61;20372;-64
2023/02/28 07:47:15;0.00;0.00;0.62;0.00;0.00;0.62;2.80;2.30;;;20.40;20.90;;;;;;2265680;61;20373;-61
2023/02/28 07:49:59;0.00;0.00;0.62;0.00;0.00;0.62;2.93;2.20;;;20.40;20.90;;;;;;2261011;61;20407;-61
2023/02/28 07:52:45;0.00;0.00;0.62;0.00;0.00;0.62;2.57;2.20;;;20.40;20.90;;;;;;2263925;61;20380;-61
2023/02/28 07:55:30;0.00;0.00;0.62;0.00;0.00;0.62;3.90;2.63;;;20.40;20.90;;;;;;2261347;61;20360;-61
2023/02/28 07:58:15;0.00;0.00;0.62;0.00;0.00;0.62;3.03;2.17;;;20.40;20.90;;;;;;2264162;61;20363;-61
2023/02/28 08:01:06;0.00;0.00;0.62;0.00;0.00;0.62;2.50;2.10;;;20.40;21.00;;;;;;2263882;61;20491;-63
2023/02/28 08:03:51;0.00;0.00;0.62;0.00;0.00;0.62;2.60;1.80;;;20.40;21.00;;;;;;2264311;61;20459;-60
2023/02/28 08:06:36;0.00;0.00;0.62;0.00;0.00;0.62;2.57;2.30;;;20.40;21.00;;;;;;2263706;61;20766;-62
2023/02/28 08:09:22;0.00;0.00;0.62;0.00;0.00;0.62;2.70;1.93;;;20.40;21.00;;;;;;2264163;61;20394;-61
2023/02/28 08:12:07;0.00;0.00;0.62;0.00;0.00;0.62;2.13;1.93;;;20.40;21.00;;;;;;2264394;61;20391;-61
2023/02/28 08:14:52;0.00;0.00;0.62;0.00;0.00;0.62;3.30;2.50;;;20.40;21.00;;;;;;2263380;61;20438;-59
2023/02/28 08:17:37;0.00;0.00;0.62;0.00;0.00;0.62;2.70;2.23;;;20.40;21.00;;;;;;2264546;61;20391;-58
2023/02/28 08:20:22;0.00;0.00;0.62;0.00;0.00;0.62;4.17;2.67;;;20.40;21.00;;;;;;2263819;61;20422;-61
2023/02/28 08:23:07;0.00;0.00;0.62;0.00;0.00;0.62;3.00;2.10;;;20.40;21.00;;;;;;2264042;61;20384;-59
2023/02/28 08:25:56;0.00;0.00;0.62;0.00;0.00;0.62;2.43;2.03;;;20.40;21.00;;;;;;2264248;61;20411;-65
2023/02/28 08:28:41;0.00;0.00;0.62;0.00;0.00;0.62;2.30;1.93;;;20.40;21.00;;;;;;2263640;61;20916;-61
2023/02/28 08:31:25;0.00;0.00;0.62;0.00;0.00;0.62;3.03;2.07;;;20.40;21.00;;;;;;2261150;61;20367;-60
2023/02/28 08:34:14;0.00;0.00;0.62;0.00;0.00;0.62;2.93;2.33;;;20.40;21.00;;;;;;2264266;61;20389;-62
2023/02/28 08:36:59;0.00;0.00;0.62;0.00;0.00;0.62;2.77;2.40;;;20.40;21.10;;;;;;2263719;61;20418;-61
2023/02/28 08:39:43;0.00;0.00;0.62;0.00;0.00;0.62;2.50;1.93;;;20.40;21.10;;;;;;2263829;61;20907;-61
2023/02/28 08:42:30;0.00;0.00;0.62;0.00;0.00;0.62;2.73;1.83;;;20.50;21.20;;;;;;2264255;61;20395;-59
2023/02/28 08:45:15;0.00;0.00;0.62;0.00;0.00;0.62;3.30;2.57;;;20.50;21.20;;;;;;2263914;61;20395;-65
2023/02/28 08:48:00;0.00;0.00;0.62;0.00;0.00;0.62;2.90;2.13;;;20.50;21.20;;;;;;2261003;61;20422;-63
2023/02/28 08:50:44;0.00;0.00;0.62;0.00;0.00;0.62;2.90;2.20;;;20.50;21.20;;;;;;2263130;61;20356;-60
2023/02/28 08:53:30;0.00;0.00;0.62;0.00;0.00;0.62;3.50;2.50;;;20.50;21.20;;;;;;2264269;61;20392;-61
2023/02/28 08:56:16;0.00;0.00;0.62;0.00;0.00;0.62;2.50;2.00;;;20.50;21.20;;;;;;2264176;61;20447;-61
2023/02/28 08:59:03;0.00;0.00;0.62;0.00;0.00;0.62;3.03;2.10;;;20.50;21.20;;;;;;2263162;61;20407;-59
2023/02/28 09:01:47;0.00;0.00;0.62;0.00;0.00;0.62;2.30;2.03;;;20.50;21.20;;;;;;2260824;61;20380;-55
2023/02/28 09:04:33;0.00;0.00;0.62;0.00;0.00;0.62;3.10;2.00;;;20.60;21.30;;;;;;2264283;61;20418;-60
2023/02/28 09:07:18;0.00;0.00;0.62;0.00;0.00;0.62;2.50;1.87;;;20.60;21.80;;;;;;2263803;61;20491;-60
2023/02/28 09:10:04;0.00;0.00;0.62;0.00;0.00;0.62;2.77;2.23;;;20.60;21.30;;;;;;2264235;61;20407;-62
2023/02/28 09:12:49;0.00;0.00;0.62;0.00;0.00;0.62;2.50;2.00;;;20.60;21.30;;;;;;2263350;61;20412;-60
2023/02/28 09:15:36;0.00;0.00;0.62;0.00;0.00;0.62;3.13;2.23;;;20.60;21.30;;;;;;2264132;61;20392;-59
2023/02/28 09:18:21;0.00;0.00;0.62;0.00;0.00;0.62;3.40;2.47;;;20.60;21.30;;;;;;2264167;61;20360;-60
2023/02/28 09:21:08;0.00;0.00;0.62;0.00;0.00;0.62;3.70;2.50;;;20.60;21.30;;;;;;2262876;61;20363;-64
2023/02/28 09:23:52;0.00;0.00;0.62;0.00;0.00;0.62;2.70;2.20;;;20.60;21.30;;;;;;2264286;61;20515;-61
2023/02/28 09:26:37;0.00;0.00;0.62;0.00;0.00;0.62;3.07;2.40;;;20.70;21.40;;;;;;2264230;61;20410;-62
2023/02/28 09:29:22;0.00;0.00;0.62;0.00;0.00;0.62;2.40;2.10;;;20.70;21.40;;;;;;2263394;61;20463;-59
2023/02/28 09:32:08;0.00;0.00;0.62;0.00;0.00;0.62;3.17;2.50;;;20.70;21.40;;;;;;2264395;61;20883;-54
2023/02/28 09:34:53;0.00;0.00;0.62;0.00;0.00;0.62;3.00;2.10;;;20.70;21.40;;;;;;2263276;61;20427;-64
2023/02/28 09:37:38;0.00;0.00;0.62;0.00;0.00;0.62;2.60;2.33;;;20.70;21.40;;;;;;2263708;61;20368;-57
2023/02/28 09:40:25;0.00;0.00;0.62;0.00;0.00;0.62;3.37;2.70;;;20.70;21.40;;;;;;2263790;61;20360;-60
2023/02/28 09:43:14;0.00;0.00;0.62;0.00;0.00;0.62;3.77;3.20;;;20.70;21.40;;;;;;2263245;61;20391;-66
2023/02/28 09:46:08;0.00;0.00;0.62;0.00;0.00;0.62;3.30;2.50;;;20.80;21.50;;;;;;2264188;61;20415;-60
2023/02/28 09:48:55;0.00;0.00;0.62;0.00;0.00;0.62;3.53;2.80;;;20.80;21.50;;;;;;2264207;61;20372;-56
2023/02/28 09:51:50;0.00;0.00;0.62;0.00;0.00;0.62;5.23;3.67;;;20.80;21.50;;;;;;2264479;61;20412;-58
2023/02/28 09:54:36;0.00;0.00;0.62;0.00;0.00;0.62;5.03;3.97;;;20.80;21.50;;;;;;2264510;61;20395;-59
2023/02/28 09:57:31;0.00;0.00;0.62;0.00;0.00;0.62;4.07;3.50;;;20.80;21.50;;;;;;2264005;61;20371;-60
2023/02/28 10:00:21;0.00;0.00;0.62;0.00;0.00;0.62;4.80;4.00;;;20.90;21.60;;;;;;2264397;61;20410;-63
2023/02/28 10:03:30;0.00;0.00;0.62;0.00;0.00;0.62;4.90;3.90;;;20.90;21.60;;;;;;2264359;61;20807;-60
2023/02/28 10:06:20;0.00;0.00;0.62;0.00;0.00;0.62;4.03;3.20;;;20.90;21.60;;;;;;2264283;61;20363;-60
2023/02/28 10:09:13;0.00;0.00;0.62;0.00;0.00;0.62;5.77;4.13;;;20.90;21.50;;;;;;2264417;61;20976;-61
2023/02/28 10:12:04;0.00;0.00;0.62;0.00;0.00;0.62;4.77;4.07;;;21.00;21.70;;;;;;2263997;61;20904;-56
2023/02/28 10:14:54;0.00;0.00;0.62;0.00;0.00;0.62;6.90;5.23;;;21.00;21.70;;;;;;2264747;61;20382;-59
2023/02/28 10:17:42;0.00;0.00;0.62;0.00;0.00;0.62;4.60;4.10;;;21.00;21.70;;;;;;2261369;61;20444;-67
2023/02/28 10:20:30;0.00;0.00;0.62;0.00;0.00;0.62;5.53;4.40;;;21.00;21.80;;;;;;2263738;61;20394;-68
2023/02/28 10:23:21;0.00;0.00;0.62;0.00;0.00;0.62;5.73;4.20;;;21.00;21.80;;;;;;2264915;61;20372;-63
2023/02/28 10:26:13;0.00;0.00;0.62;0.00;0.00;0.62;5.50;4.23;;;21.10;21.90;;;;;;2264710;61;20467;-64
2023/02/28 10:28:58;0.00;0.00;0.62;0.00;0.00;0.62;7.13;4.77;;;21.10;21.90;;;;;;2264443;61;20403;-66
2023/02/28 10:31:43;0.00;0.00;0.62;0.00;0.00;0.62;6.10;4.67;;;21.10;22.00;;;;;;2264531;61;20410;-62
2023/02/28 10:34:28;0.00;0.00;0.62;0.00;0.00;0.62;7.70;5.27;;;21.20;22.10;;;;;;2263836;61;20985;-66
2023/02/28 10:37:13;0.00;0.00;0.62;0.00;0.00;0.62;5.17;3.80;;;21.10;22.00;;;;;;2261787;61;20360;-56
2023/02/28 10:39:59;0.00;0.00;0.62;0.00;0.00;0.62;4.67;3.80;;;21.20;22.10;;;;;;2264321;61;20772;-57
2023/02/28 10:42:55;0.00;0.00;0.62;0.00;0.00;0.62;7.83;4.80;;;21.20;22.20;;;;;;2263773;61;20419;-65
2023/02/28 10:45:53;0.00;0.00;0.62;0.00;0.00;0.62;6.37;4.80;;;21.30;22.20;;;;;;2264815;61;20388;-55
2023/02/28 10:48:42;0.00;0.00;0.62;0.00;0.00;0.62;5.03;4.20;;;21.30;22.20;;;;;;2264210;61;20376;-63
2023/02/28 10:51:36;0.00;0.00;0.62;0.00;0.00;0.62;4.53;3.93;;;21.30;22.30;;;;;;2264954;61;20355;-60
2023/02/28 10:54:27;0.00;0.00;0.62;0.00;0.00;0.62;5.47;3.90;;;21.40;22.30;;;;;;2264098;61;20396;-67
2023/02/28 10:57:21;0.00;0.00;0.62;0.00;0.00;0.62;5.63;3.93;;;21.40;22.20;;;;;;2263867;61;20367;-66
2023/02/28 11:00:16;0.00;0.00;0.62;0.00;0.00;0.62;7.23;4.60;;;21.50;22.30;;;;;;2263774;61;20905;-67
2023/02/28 11:03:01;0.00;0.00;0.62;0.00;0.00;0.62;4.40;3.50;;;21.50;22.30;;;;;;2261383;61;20387;-65
2023/02/28 11:05:46;0.00;0.00;0.62;0.00;0.00;0.62;4.27;3.77;;;21.50;22.30;;;;;;2264327;61;20367;-61